Date,TemperatureHighF,TemperatureAvgF,TemperatureLowF,DewpointHighF,DewpointAvgF,DewpointLowF,HumidityHigh,HumidityAvg,HumidityLow,PressureMaxIn,PressureMinIn,WindSpeedMaxMPH,WindSpeedAvgMPH,GustSpeedMaxMPH,PrecipitationSumIn
2013-2-1,44,36,18,16,12,9,68,37,25,30.27,30.03,31,7,31,0.00
2013-2-2,51,37,14,16,12,6,70,38,18,30.55,30.28,5,0,5,0.00
2013-2-3,49,39,19,19,15,5,64,38,17,30.33,29.92,26,3,26,0.00
2013-2-4,49,37,12,14,10,5,73,34,20,30.17,29.88,16,3,16,0.00
2013-2-5,56,39,16,18,14,7,69,40,19,30.19,29.88,11,1,11,0.00
2013-2-7,46,33,18,25,17,5,86,57,19,30.26,30.03,10,1,10,0.01
2013-2-8,45,40,19,20,18,13,78,40,31,30.16,29.56,45,9,45,0.00
2013-2-10,33,27,19,15,6,-3,75,42,23,30.00,29.75,23,3,23,0.00
2013-2-11,18,13,-1,13,8,-9,83,80,76,30.43,30.11,7,0,7,0.00
2013-2-12,28,15,-5,10,3,-11,79,60,42,30.57,30.34,9,1,9,0.02
2013-2-13,40,27,0,20,12,-7,73,53,39,30.56,30.07,15,2,15,0.04
2013-2-14,40,25,6,19,13,-2,79,61,35,30.49,30.17,18,1,18,0.02
2013-2-15,36,26,4,12,7,-2,79,47,29,30.62,30.31,24,4,24,0.01
2013-2-16,47,36,8,16,12,0,73,38,24,30.59,30.18,16,3,16,0.00
2013-2-17,47,39,23,9,6,2,46,26,18,30.03,29.60,32,9,32,0.00
2013-2-18,36,29,18,18,4,-3,83,37,22,30.24,29.91,23,4,25,0.01
2013-2-19,46,33,14,14,9,0,69,40,16,30.26,29.78,19,2,19,0.00
2013-2-20,39,28,20,26,22,14,87,79,54,29.81,29.50,14,1,14,0.00
2013-2-21,31,24,18,21,18,14,87,78,64,29.99,29.54,9,1,9,0.14
2013-2-22,31,22,10,20,14,5,85,75,56,30.17,29.93,9,1,9,0.05
2013-2-23,43,29,6,19,14,1,79,54,33,30.12,29.69,16,2,16,0.04
2013-2-24,28,23,18,19,16,10,84,73,62,30.15,29.73,20,4,21,0.05
2013-2-25,35,21,1,12,6,-4,81,55,36,30.38,30.00,10,1,10,0.00
2013-2-26,28,20,8,20,13,0,85,74,49,30.31,29.91,15,2,15,0.00
2013-2-27,29,10,-8,12,1,-14,82,68,43,30.74,30.31,7,0,7,0.09
2013-2-28,37,24,-6,15,8,-12,74,49,33,30.86,30.39,11,1,11,0.02